createdAt,value
2023-08-10T00:11:39.400Z,20.5
2023-08-10T00:41:39.780Z,20.4
2023-08-10T01:11:39.906Z,20.4
2023-08-10T01:41:39.681Z,20.4
2023-08-10T02:11:39.726Z,20.3
2023-08-10T02:41:39.256Z,20.3
2023-08-10T03:11:39.811Z,20.3
2023-08-10T03:41:39.719Z,20.2
2023-08-10T04:11:39.762Z,20.2
2023-08-10T04:41:39.725Z,20.1
2023-08-10T05:11:39.824Z,20.1
2023-08-10T05:41:39.793Z,20.2
2023-08-10T06:11:39.777Z,20.1
2023-08-10T06:41:39.899Z,20.2
2023-08-10T07:11:39.972Z,20.2
2023-08-10T07:41:39.765Z,20.3
2023-08-10T08:11:39.966Z,20.4
2023-08-10T08:41:39.784Z,20.5
2023-08-10T09:11:39.760Z,20.6
2023-08-10T09:41:39.921Z,20.7
2023-08-10T10:11:39.783Z,20.8
2023-08-10T10:41:39.956Z,21.0
2023-08-10T11:11:39.835Z,21.1
2023-08-10T11:41:39.755Z,21.2
2023-08-10T12:11:39.791Z,21.3
2023-08-10T12:41:40.104Z,21.5
2023-08-10T13:11:40.089Z,21.5
2023-08-10T13:41:40.089Z,21.6
2023-08-10T14:11:40.086Z,21.7
2023-08-10T14:41:39.805Z,21.8
2023-08-10T15:11:39.763Z,21.8
2023-08-10T15:41:39.685Z,21.9
2023-08-10T16:11:39.676Z,22.0
2023-08-10T16:41:39.716Z,21.9
2023-08-10T17:11:39.681Z,22.0
2023-08-10T17:41:39.690Z,21.9
2023-08-10T18:11:39.674Z,21.8
2023-08-10T18:41:39.670Z,21.8
2023-08-10T19:11:39.662Z,21.8
2023-08-10T19:41:39.676Z,21.7
2023-08-10T20:11:39.202Z,21.6
2023-08-10T20:41:39.666Z,21.6
2023-08-10T21:11:39.643Z,21.6
2023-08-10T21:41:39.753Z,21.6
2023-08-10T22:11:39.660Z,21.6
2023-08-10T22:41:39.678Z,21.5
2023-08-10T23:11:39.669Z,21.5
2023-08-10T23:41:39.665Z,21.5
